Arroyo Seco, New Mexico
Current Conditions -  °F | °C
As of 6:15 PM on Saturday 25 Oct 2014 (Local Time) from KSKX Reporting Station
Clear Clear  
Wind Chill: 19°   Ceiling: Unl
Heat Index: 19°   Visibility: 10mi
Dew Point: -6°   Wind: 7mph
Humidity: 18%   Direction: 230°SW
Pressure: 30.25"   Gusts: NA
Location:  36.52°N, 105.57°W
Report Text: KSKX 260015Z AUTO 23006KT 10SM CLR 19/M06 A3025 RMK AO1
Loading
Personal Weather Stations






























Interactive Weather Map
Tropical Storm Tracking
New forecast layout! Learn more

10-Day Weather Forecast

Advertisements
Track Severe Weather on mobile